createdAt,value
2022-08-01T00:00:24.293Z,100.00
2022-08-01T00:15:24.256Z,100.00
2022-08-01T00:30:24.252Z,100.00
2022-08-01T00:45:33.319Z,100.00
2022-08-01T01:00:34.792Z,100.00
2022-08-01T01:15:23.476Z,100.00
2022-08-01T01:30:23.456Z,100.00
2022-08-01T01:45:23.386Z,100.00
2022-08-01T02:00:23.702Z,100.00
2022-08-01T02:15:23.456Z,100.00
2022-08-01T02:30:23.495Z,100.00
2022-08-01T02:45:23.518Z,100.00
2022-08-01T03:00:24.875Z,100.00
2022-08-01T03:15:23.545Z,100.00
2022-08-01T03:30:23.583Z,100.00
2022-08-01T03:45:23.481Z,100.00
2022-08-01T04:00:23.617Z,100.00
2022-08-01T04:15:23.570Z,100.00
2022-08-01T04:30:23.707Z,100.00
2022-08-01T04:45:23.746Z,100.00
2022-08-01T05:00:23.821Z,100.00
2022-08-01T05:15:23.704Z,100.00
2022-08-01T05:30:23.737Z,100.00
2022-08-01T05:45:23.735Z,100.00
2022-08-01T06:00:24.909Z,100.00
2022-08-01T06:15:23.944Z,100.00
2022-08-01T06:30:23.779Z,100.00
2022-08-01T06:45:23.841Z,100.00
2022-08-01T07:00:24.033Z,100.00
2022-08-01T07:15:24.041Z,100.00
2022-08-01T07:30:23.925Z,98.70
2022-08-01T07:45:23.985Z,92.17
2022-08-01T08:00:23.948Z,74.55
2022-08-01T08:15:23.958Z,62.30
2022-08-01T08:30:24.211Z,64.37
2022-08-01T08:45:52.175Z,64.25
2022-08-01T09:00:24.058Z,74.07
2022-08-01T09:15:24.343Z,70.00
2022-08-01T09:30:26.210Z,74.90
2022-08-01T09:45:24.359Z,71.70
2022-08-01T10:00:44.422Z,75.77
2022-08-01T10:15:24.204Z,68.03
2022-08-01T10:30:33.297Z,72.50
2022-08-01T10:45:33.379Z,71.43
2022-08-01T11:00:34.479Z,74.95
2022-08-01T11:15:30.244Z,86.37
2022-08-01T11:30:23.358Z,83.35
2022-08-01T11:45:23.583Z,87.05
2022-08-01T12:00:23.460Z,77.10
2022-08-01T12:15:23.556Z,80.33
2022-08-01T12:30:23.375Z,91.10
2022-08-01T12:45:23.454Z,81.20
2022-08-01T13:00:23.961Z,74.40
2022-08-01T13:15:23.814Z,73.47
2022-08-01T13:30:23.640Z,67.00
2022-08-01T13:45:23.477Z,61.63
2022-08-01T14:00:25.741Z,62.05
2022-08-01T14:15:36.737Z,64.07
2022-08-01T14:30:23.689Z,63.60
2022-08-01T14:45:23.592Z,69.40
2022-08-01T15:00:23.844Z,100.00
2022-08-01T15:15:23.725Z,100.00
2022-08-01T15:30:27.102Z,100.00
2022-08-01T15:45:46.410Z,100.00
2022-08-01T16:00:23.709Z,100.00
2022-08-01T16:15:36.231Z,100.00
2022-08-01T16:30:23.803Z,100.00
2022-08-01T16:45:23.850Z,100.00
2022-08-01T17:00:23.872Z,100.00
2022-08-01T17:15:24.241Z,100.00
2022-08-01T17:30:24.122Z,100.00
2022-08-01T17:45:27.511Z,100.00
2022-08-01T18:00:24.233Z,100.00
2022-08-01T18:15:26.796Z,100.00
2022-08-01T18:30:24.186Z,100.00
2022-08-01T18:45:24.114Z,100.00
2022-08-01T19:00:24.755Z,100.00
2022-08-01T19:15:24.102Z,100.00
2022-08-01T19:30:24.101Z,100.00
2022-08-01T19:45:24.128Z,100.00
2022-08-01T20:00:28.278Z,100.00
2022-08-01T20:15:24.259Z,100.00
2022-08-01T20:30:24.280Z,100.00
2022-08-01T20:45:24.158Z,100.00
2022-08-01T21:00:33.801Z,100.00
2022-08-01T21:15:23.143Z,100.00
2022-08-01T21:30:22.946Z,100.00
2022-08-01T21:45:23.654Z,100.00
2022-08-01T22:15:23.322Z,100.00
2022-08-01T22:30:23.423Z,100.00
2022-08-01T22:45:23.450Z,100.00
2022-08-01T23:00:23.475Z,100.00
2022-08-01T23:15:23.463Z,100.00
2022-08-01T23:30:23.230Z,100.00
2022-08-01T23:45:23.321Z,100.00
